sensor_id;sensor_type;location;lat;lon;timestamp;temperature;humidity
49731;DHT22;35622;52.008;5.426;2023-11-19T00:01:36;16.20;99.90
49731;DHT22;35622;52.008;5.426;2023-11-19T00:04:02;16.20;99.90
49731;DHT22;35622;52.008;5.426;2023-11-19T00:06:30;16.40;99.90
49731;DHT22;35622;52.008;5.426;2023-11-19T00:08:55;16.40;99.90
49731;DHT22;35622;52.008;5.426;2023-11-19T00:11:21;16.30;99.90
49731;DHT22;35622;52.008;5.426;2023-11-19T00:13:46;16.30;99.90
49731;DHT22;35622;52.008;5.426;2023-11-19T00:16:12;16.30;99.90
49731;DHT22;35622;52.008;5.426;2023-11-19T00:18:37;16.20;99.90
49731;DHT22;35622;52.008;5.426;2023-11-19T00:21:03;16.20;99.90
49731;DHT22;35622;52.008;5.426;2023-11-19T00:23:29;16.10;99.90
49731;DHT22;35622;52.008;5.426;2023-11-19T00:25:54;16.10;99.90
49731;DHT22;35622;52.008;5.426;2023-11-19T00:28:20;16.20;99.90
49731;DHT22;35622;52.008;5.426;2023-11-19T00:30:45;16.20;99.90
49731;DHT22;35622;52.008;5.426;2023-11-19T00:33:11;16.20;99.90
49731;DHT22;35622;52.008;5.426;2023-11-19T00:35:36;16.40;99.90
49731;DHT22;35622;52.008;5.426;2023-11-19T00:38:02;16.60;99.90
49731;DHT22;35622;52.008;5.426;2023-11-19T00:40:29;16.60;99.90
49731;DHT22;35622;52.008;5.426;2023-11-19T00:42:54;16.60;99.90
49731;DHT22;35622;52.008;5.426;2023-11-19T00:45:20;16.70;99.90
49731;DHT22;35622;52.008;5.426;2023-11-19T00:47:46;16.60;99.90
49731;DHT22;35622;52.008;5.426;2023-11-19T00:50:11;16.70;99.90
49731;DHT22;35622;52.008;5.426;2023-11-19T00:52:38;16.50;99.90
49731;DHT22;35622;52.008;5.426;2023-11-19T00:55:05;16.40;99.90
49731;DHT22;35622;52.008;5.426;2023-11-19T00:57:31;16.20;99.90
49731;DHT22;35622;52.008;5.426;2023-11-19T00:59:58;16.20;99.90
49731;DHT22;35622;52.008;5.426;2023-11-19T01:02:24;16.30;99.90
49731;DHT22;35622;52.008;5.426;2023-11-19T01:04:50;16.40;99.90
49731;DHT22;35622;52.008;5.426;2023-11-19T01:07:16;16.30;99.90
49731;DHT22;35622;52.008;5.426;2023-11-19T01:09:42;16.20;99.90
49731;DHT22;35622;52.008;5.426;2023-11-19T01:12:08;16.30;99.90
49731;DHT22;35622;52.008;5.426;2023-11-19T01:14:34;16.40;99.90
49731;DHT22;35622;52.008;5.426;2023-11-19T01:17:01;16.40;99.90
49731;DHT22;35622;52.008;5.426;2023-11-19T01:19:26;16.40;99.90
49731;DHT22;35622;52.008;5.426;2023-11-19T01:21:54;16.50;99.90
49731;DHT22;35622;52.008;5.426;2023-11-19T01:24:20;16.50;99.90
49731;DHT22;35622;52.008;5.426;2023-11-19T01:26:45;16.30;99.90
49731;DHT22;35622;52.008;5.426;2023-11-19T01:29:15;16.50;99.90
49731;DHT22;35622;52.008;5.426;2023-11-19T01:31:41;16.60;99.90
49731;DHT22;35622;52.008;5.426;2023-11-19T01:34:07;16.30;99.90
49731;DHT22;35622;52.008;5.426;2023-11-19T01:36:33;16.40;99.90
49731;DHT22;35622;52.008;5.426;2023-11-19T01:38:58;16.30;99.90
49731;DHT22;35622;52.008;5.426;2023-11-19T01:41:24;16.10;99.90
49731;DHT22;35622;52.008;5.426;2023-11-19T01:43:50;16.10;99.90
49731;DHT22;35622;52.008;5.426;2023-11-19T01:46:16;16.30;99.90
49731;DHT22;35622;52.008;5.426;2023-11-19T01:48:45;16.20;99.90
49731;DHT22;35622;52.008;5.426;2023-11-19T01:51:12;16.40;99.90
49731;DHT22;35622;52.008;5.426;2023-11-19T01:53:39;16.20;99.90
49731;DHT22;35622;52.008;5.426;2023-11-19T01:56:07;16.20;99.90
49731;DHT22;35622;52.008;5.426;2023-11-19T01:58:37;16.40;99.90
49731;DHT22;35622;52.008;5.426;2023-11-19T02:01:05;16.30;99.90
49731;DHT22;35622;52.008;5.426;2023-11-19T02:03:31;16.40;99.90
49731;DHT22;35622;52.008;5.426;2023-11-19T02:06:02;16.40;99.90
49731;DHT22;35622;52.008;5.426;2023-11-19T02:08:29;16.40;99.90
49731;DHT22;35622;52.008;5.426;2023-11-19T02:10:55;16.20;99.90
49731;DHT22;35622;52.008;5.426;2023-11-19T02:13:26;16.20;99.90
49731;DHT22;35622;52.008;5.426;2023-11-19T02:15:53;15.80;99.90
49731;DHT22;35622;52.008;5.426;2023-11-19T02:18:20;16.00;99.90
49731;DHT22;35622;52.008;5.426;2023-11-19T02:20:47;15.90;99.90
49731;DHT22;35622;52.008;5.426;2023-11-19T02:23:13;16.20;99.90
49731;DHT22;35622;52.008;5.426;2023-11-19T02:25:40;16.10;99.90
49731;DHT22;35622;52.008;5.426;2023-11-19T02:28:06;16.00;99.90
49731;DHT22;35622;52.008;5.426;2023-11-19T02:30:32;15.90;99.90
49731;DHT22;35622;52.008;5.426;2023-11-19T02:32:59;15.90;99.90
49731;DHT22;35622;52.008;5.426;2023-11-19T02:35:28;16.00;99.90
49731;DHT22;35622;52.008;5.426;2023-11-19T02:37:57;16.00;99.90
49731;DHT22;35622;52.008;5.426;2023-11-19T02:40:24;15.80;99.90
49731;DHT22;35622;52.008;5.426;2023-11-19T02:42:49;15.40;99.90
49731;DHT22;35622;52.008;5.426;2023-11-19T02:45:15;15.20;99.90
49731;DHT22;35622;52.008;5.426;2023-11-19T02:47:41;15.30;99.90
49731;DHT22;35622;52.008;5.426;2023-11-19T02:50:10;15.30;99.90
49731;DHT22;35622;52.008;5.426;2023-11-19T02:52:42;15.60;99.90
49731;DHT22;35622;52.008;5.426;2023-11-19T02:55:08;15.80;99.90
49731;DHT22;35622;52.008;5.426;2023-11-19T02:57:35;15.70;99.90
49731;DHT22;35622;52.008;5.426;2023-11-19T03:00:01;15.70;99.90
49731;DHT22;35622;52.008;5.426;2023-11-19T03:02:32;15.50;99.90
49731;DHT22;35622;52.008;5.426;2023-11-19T03:05:09;15.50;99.90
49731;DHT22;35622;52.008;5.426;2023-11-19T03:07:34;15.30;99.90
49731;DHT22;35622;52.008;5.426;2023-11-19T03:10:00;15.30;99.90
49731;DHT22;35622;52.008;5.426;2023-11-19T03:12:25;15.20;99.90
49731;DHT22;35622;52.008;5.426;2023-11-19T03:14:51;15.20;99.90
49731;DHT22;35622;52.008;5.426;2023-11-19T03:17:17;15.20;99.90
49731;DHT22;35622;52.008;5.426;2023-11-19T03:19:44;14.90;99.90
49731;DHT22;35622;52.008;5.426;2023-11-19T03:22:09;14.90;99.90
49731;DHT22;35622;52.008;5.426;2023-11-19T03:24:36;14.90;99.90
49731;DHT22;35622;52.008;5.426;2023-11-19T03:27:01;15.00;99.90
49731;DHT22;35622;52.008;5.426;2023-11-19T03:29:29;15.10;99.90
49731;DHT22;35622;52.008;5.426;2023-11-19T03:31:54;14.90;99.90
49731;DHT22;35622;52.008;5.426;2023-11-19T03:34:20;15.00;99.90
49731;DHT22;35622;52.008;5.426;2023-11-19T03:36:45;15.00;99.90
49731;DHT22;35622;52.008;5.426;2023-11-19T03:39:11;14.90;99.90
49731;DHT22;35622;52.008;5.426;2023-11-19T03:41:36;14.90;99.90
49731;DHT22;35622;52.008;5.426;2023-11-19T03:44:02;14.90;99.90
49731;DHT22;35622;52.008;5.426;2023-11-19T03:46:27;14.90;99.90
49731;DHT22;35622;52.008;5.426;2023-11-19T03:48:55;14.90;99.90
49731;DHT22;35622;52.008;5.426;2023-11-19T03:51:20;14.80;99.90
49731;DHT22;35622;52.008;5.426;2023-11-19T03:53:46;14.80;99.90
49731;DHT22;35622;52.008;5.426;2023-11-19T03:56:12;14.90;99.90
49731;DHT22;35622;52.008;5.426;2023-11-19T03:58:38;15.00;99.90
49731;DHT22;35622;52.008;5.426;2023-11-19T04:01:13;14.90;99.90
49731;DHT22;35622;52.008;5.426;2023-11-19T04:03:39;14.50;99.90
49731;DHT22;35622;52.008;5.426;2023-11-19T04:06:05;14.60;99.90
49731;DHT22;35622;52.008;5.426;2023-11-19T04:08:31;14.50;99.90
49731;DHT22;35622;52.008;5.426;2023-11-19T04:10:56;14.30;99.90
49731;DHT22;35622;52.008;5.426;2023-11-19T04:13:22;14.50;99.90
49731;DHT22;35622;52.008;5.426;2023-11-19T04:15:49;14.30;99.90
49731;DHT22;35622;52.008;5.426;2023-11-19T04:18:15;14.40;99.90
49731;DHT22;35622;52.008;5.426;2023-11-19T04:20:41;14.50;99.90
49731;DHT22;35622;52.008;5.426;2023-11-19T04:23:08;14.50;99.90
49731;DHT22;35622;52.008;5.426;2023-11-19T04:25:35;14.40;99.90
49731;DHT22;35622;52.008;5.426;2023-11-19T04:28:00;14.50;99.90
49731;DHT22;35622;52.008;5.426;2023-11-19T04:30:26;14.40;99.90
49731;DHT22;35622;52.008;5.426;2023-11-19T04:32:51;14.40;99.90
49731;DHT22;35622;52.008;5.426;2023-11-19T04:35:17;14.30;99.90
49731;DHT22;35622;52.008;5.426;2023-11-19T04:37:44;13.90;99.90
49731;DHT22;35622;52.008;5.426;2023-11-19T04:40:10;13.90;99.90
49731;DHT22;35622;52.008;5.426;2023-11-19T04:42:37;13.90;99.90
49731;DHT22;35622;52.008;5.426;2023-11-19T04:45:06;13.90;99.90
49731;DHT22;35622;52.008;5.426;2023-11-19T04:47:32;14.00;99.90
49731;DHT22;35622;52.008;5.426;2023-11-19T04:49:58;13.70;99.90
49731;DHT22;35622;52.008;5.426;2023-11-19T04:52:24;13.90;99.90
49731;DHT22;35622;52.008;5.426;2023-11-19T04:54:49;14.20;99.90
49731;DHT22;35622;52.008;5.426;2023-11-19T04:57:15;14.20;99.90
49731;DHT22;35622;52.008;5.426;2023-11-19T04:59:40;14.30;99.90
49731;DHT22;35622;52.008;5.426;2023-11-19T05:02:06;14.30;99.90
49731;DHT22;35622;52.008;5.426;2023-11-19T05:04:33;14.20;99.90
49731;DHT22;35622;52.008;5.426;2023-11-19T05:06:59;14.10;99.90
49731;DHT22;35622;52.008;5.426;2023-11-19T05:09:24;14.20;99.90
49731;DHT22;35622;52.008;5.426;2023-11-19T05:11:50;14.00;99.90
49731;DHT22;35622;52.008;5.426;2023-11-19T05:14:16;14.20;99.90
49731;DHT22;35622;52.008;5.426;2023-11-19T05:16:42;14.10;99.90
49731;DHT22;35622;52.008;5.426;2023-11-19T05:19:08;14.00;99.90
49731;DHT22;35622;52.008;5.426;2023-11-19T05:21:34;13.80;99.90
49731;DHT22;35622;52.008;5.426;2023-11-19T05:24:01;13.90;99.90
49731;DHT22;35622;52.008;5.426;2023-11-19T05:26:30;14.10;99.90
49731;DHT22;35622;52.008;5.426;2023-11-19T05:28:56;14.10;99.90
49731;DHT22;35622;52.008;5.426;2023-11-19T05:31:21;13.90;99.90
49731;DHT22;35622;52.008;5.426;2023-11-19T05:33:47;14.00;99.90
49731;DHT22;35622;52.008;5.426;2023-11-19T05:36:12;13.90;99.90
49731;DHT22;35622;52.008;5.426;2023-11-19T05:38:38;14.10;99.90
49731;DHT22;35622;52.008;5.426;2023-11-19T05:41:05;14.10;99.90
49731;DHT22;35622;52.008;5.426;2023-11-19T05:43:31;13.90;99.90
49731;DHT22;35622;52.008;5.426;2023-11-19T05:45:56;14.00;99.90
49731;DHT22;35622;52.008;5.426;2023-11-19T05:48:22;14.10;99.90
49731;DHT22;35622;52.008;5.426;2023-11-19T05:50:48;14.00;99.90
49731;DHT22;35622;52.008;5.426;2023-11-19T05:53:15;14.10;99.90
49731;DHT22;35622;52.008;5.426;2023-11-19T05:55:41;14.00;99.90
49731;DHT22;35622;52.008;5.426;2023-11-19T05:58:29;13.80;99.90
49731;DHT22;35622;52.008;5.426;2023-11-19T06:00:56;13.80;99.90
49731;DHT22;35622;52.008;5.426;2023-11-19T06:03:22;13.80;99.90
49731;DHT22;35622;52.008;5.426;2023-11-19T06:05:49;13.80;99.90
49731;DHT22;35622;52.008;5.426;2023-11-19T06:08:15;14.00;99.90
49731;DHT22;35622;52.008;5.426;2023-11-19T06:10:41;14.20;99.90
49731;DHT22;35622;52.008;5.426;2023-11-19T06:13:07;14.00;99.90
49731;DHT22;35622;52.008;5.426;2023-11-19T06:15:35;14.10;99.90
49731;DHT22;35622;52.008;5.426;2023-11-19T06:18:01;14.10;99.90
49731;DHT22;35622;52.008;5.426;2023-11-19T06:20:32;14.10;99.90
49731;DHT22;35622;52.008;5.426;2023-11-19T06:22:57;14.00;99.90
49731;DHT22;35622;52.008;5.426;2023-11-19T06:25:23;14.00;99.90
49731;DHT22;35622;52.008;5.426;2023-11-19T06:27:52;14.00;99.90
49731;DHT22;35622;52.008;5.426;2023-11-19T06:30:18;13.90;99.90
49731;DHT22;35622;52.008;5.426;2023-11-19T06:32:44;13.90;99.90
49731;DHT22;35622;52.008;5.426;2023-11-19T06:35:10;13.90;99.90
49731;DHT22;35622;52.008;5.426;2023-11-19T06:37:38;13.80;99.90
49731;DHT22;35622;52.008;5.426;2023-11-19T06:40:04;13.90;99.90
49731;DHT22;35622;52.008;5.426;2023-11-19T06:42:30;13.80;99.90
49731;DHT22;35622;52.008;5.426;2023-11-19T06:44:56;14.00;99.90
49731;DHT22;35622;52.008;5.426;2023-11-19T06:47:26;13.80;99.90
49731;DHT22;35622;52.008;5.426;2023-11-19T06:49:53;13.80;99.90
49731;DHT22;35622;52.008;5.426;2023-11-19T06:52:18;13.80;99.90
49731;DHT22;35622;52.008;5.426;2023-11-19T06:54:44;13.90;99.90
49731;DHT22;35622;52.008;5.426;2023-11-19T06:57:13;14.00;99.90
49731;DHT22;35622;52.008;5.426;2023-11-19T06:59:39;14.00;99.90
49731;DHT22;35622;52.008;5.426;2023-11-19T07:02:05;14.00;99.90
49731;DHT22;35622;52.008;5.426;2023-11-19T07:04:32;14.10;99.90
49731;DHT22;35622;52.008;5.426;2023-11-19T07:06:58;14.10;99.90
49731;DHT22;35622;52.008;5.426;2023-11-19T07:09:25;14.00;99.90
49731;DHT22;35622;52.008;5.426;2023-11-19T07:11:50;14.00;99.90
49731;DHT22;35622;52.008;5.426;2023-11-19T07:14:18;13.90;99.90
49731;DHT22;35622;52.008;5.426;2023-11-19T07:16:44;14.00;99.90
49731;DHT22;35622;52.008;5.426;2023-11-19T07:19:09;14.10;99.90
49731;DHT22;35622;52.008;5.426;2023-11-19T07:21:35;13.90;99.90
49731;DHT22;35622;52.008;5.426;2023-11-19T07:24:05;13.80;99.90
49731;DHT22;35622;52.008;5.426;2023-11-19T07:26:31;14.00;99.90
49731;DHT22;35622;52.008;5.426;2023-11-19T07:28:56;14.00;99.90
49731;DHT22;35622;52.008;5.426;2023-11-19T07:31:23;13.90;99.90
49731;DHT22;35622;52.008;5.426;2023-11-19T07:33:49;14.00;99.90
49731;DHT22;35622;52.008;5.426;2023-11-19T07:36:15;14.10;99.90
49731;DHT22;35622;52.008;5.426;2023-11-19T07:38:40;14.00;99.90
49731;DHT22;35622;52.008;5.426;2023-11-19T07:41:06;14.00;99.90
49731;DHT22;35622;52.008;5.426;2023-11-19T07:43:34;14.10;99.90
49731;DHT22;35622;52.008;5.426;2023-11-19T07:45:59;14.10;99.90
49731;DHT22;35622;52.008;5.426;2023-11-19T07:48:25;14.20;99.90
49731;DHT22;35622;52.008;5.426;2023-11-19T07:50:52;14.30;99.90
49731;DHT22;35622;52.008;5.426;2023-11-19T07:53:19;14.30;99.90
49731;DHT22;35622;52.008;5.426;2023-11-19T07:55:44;14.20;99.90
49731;DHT22;35622;52.008;5.426;2023-11-19T07:58:10;14.10;99.90
49731;DHT22;35622;52.008;5.426;2023-11-19T08:00:36;14.00;99.90
49731;DHT22;35622;52.008;5.426;2023-11-19T08:03:03;14.10;99.90
49731;DHT22;35622;52.008;5.426;2023-11-19T08:05:28;14.00;99.90
49731;DHT22;35622;52.008;5.426;2023-11-19T08:07:54;14.10;99.90
49731;DHT22;35622;52.008;5.426;2023-11-19T08:10:20;14.10;99.90
49731;DHT22;35622;52.008;5.426;2023-11-19T08:12:45;14.30;99.90
49731;DHT22;35622;52.008;5.426;2023-11-19T08:15:11;14.30;99.90
49731;DHT22;35622;52.008;5.426;2023-11-19T08:17:37;14.60;99.90
49731;DHT22;35622;52.008;5.426;2023-11-19T08:20:03;14.60;99.90
49731;DHT22;35622;52.008;5.426;2023-11-19T08:22:30;14.50;99.90
49731;DHT22;35622;52.008;5.426;2023-11-19T08:24:56;14.40;99.90
49731;DHT22;35622;52.008;5.426;2023-11-19T08:27:21;14.40;99.90
49731;DHT22;35622;52.008;5.426;2023-11-19T08:29:53;14.70;99.90
49731;DHT22;35622;52.008;5.426;2023-11-19T08:32:20;14.70;99.90
49731;DHT22;35622;52.008;5.426;2023-11-19T08:34:46;14.80;99.90
49731;DHT22;35622;52.008;5.426;2023-11-19T08:37:12;15.00;99.90
49731;DHT22;35622;52.008;5.426;2023-11-19T08:39:38;14.90;99.90
49731;DHT22;35622;52.008;5.426;2023-11-19T08:42:04;14.90;99.90
49731;DHT22;35622;52.008;5.426;2023-11-19T08:44:29;14.80;99.90
49731;DHT22;35622;52.008;5.426;2023-11-19T08:46:55;14.90;99.90
49731;DHT22;35622;52.008;5.426;2023-11-19T08:49:21;15.20;99.90
49731;DHT22;35622;52.008;5.426;2023-11-19T08:51:46;15.20;99.90
49731;DHT22;35622;52.008;5.426;2023-11-19T08:54:12;15.30;99.90
49731;DHT22;35622;52.008;5.426;2023-11-19T08:56:38;15.40;99.60
49731;DHT22;35622;52.008;5.426;2023-11-19T08:59:05;15.40;99.50
49731;DHT22;35622;52.008;5.426;2023-11-19T09:01:30;15.40;99.60
49731;DHT22;35622;52.008;5.426;2023-11-19T09:03:56;15.20;99.90
49731;DHT22;35622;52.008;5.426;2023-11-19T09:06:21;15.70;99.90
49731;DHT22;35622;52.008;5.426;2023-11-19T09:08:47;15.90;99.30
49731;DHT22;35622;52.008;5.426;2023-11-19T09:11:13;15.90;99.20
49731;DHT22;35622;52.008;5.426;2023-11-19T09:13:38;15.90;98.10
49731;DHT22;35622;52.008;5.426;2023-11-19T09:16:04;15.70;98.80
49731;DHT22;35622;52.008;5.426;2023-11-19T09:18:30;15.50;99.00
49731;DHT22;35622;52.008;5.426;2023-11-19T09:20:57;15.80;99.70
49731;DHT22;35622;52.008;5.426;2023-11-19T09:23:22;15.90;99.40
49731;DHT22;35622;52.008;5.426;2023-11-19T09:25:49;16.20;98.90
49731;DHT22;35622;52.008;5.426;2023-11-19T09:28:15;16.20;98.30
49731;DHT22;35622;52.008;5.426;2023-11-19T09:30:40;15.90;98.60
49731;DHT22;35622;52.008;5.426;2023-11-19T09:33:06;15.70;98.40
49731;DHT22;35622;52.008;5.426;2023-11-19T09:35:32;15.70;98.90
49731;DHT22;35622;52.008;5.426;2023-11-19T09:37:57;16.00;98.20
49731;DHT22;35622;52.008;5.426;2023-11-19T09:40:24;16.00;98.20
49731;DHT22;35622;52.008;5.426;2023-11-19T09:42:50;15.80;98.70
49731;DHT22;35622;52.008;5.426;2023-11-19T09:45:17;16.10;99.10
49731;DHT22;35622;52.008;5.426;2023-11-19T09:47:47;16.00;98.20
49731;DHT22;35622;52.008;5.426;2023-11-19T09:50:19;16.40;98.50
49731;DHT22;35622;52.008;5.426;2023-11-19T09:52:45;16.40;97.80
49731;DHT22;35622;52.008;5.426;2023-11-19T09:55:11;16.30;97.80
49731;DHT22;35622;52.008;5.426;2023-11-19T09:57:40;16.30;98.50
49731;DHT22;35622;52.008;5.426;2023-11-19T10:00:08;16.30;97.00
49731;DHT22;35622;52.008;5.426;2023-11-19T10:02:36;16.30;97.60
49731;DHT22;35622;52.008;5.426;2023-11-19T10:05:06;16.40;97.60
49731;DHT22;35622;52.008;5.426;2023-11-19T10:07:33;16.50;97.60
49731;DHT22;35622;52.008;5.426;2023-11-19T10:10:02;16.20;97.20
49731;DHT22;35622;52.008;5.426;2023-11-19T10:12:33;16.10;97.30
49731;DHT22;35622;52.008;5.426;2023-11-19T10:14:59;15.90;97.60
49731;DHT22;35622;52.008;5.426;2023-11-19T10:17:28;15.40;98.50
49731;DHT22;35622;52.008;5.426;2023-11-19T10:19:56;15.60;98.80
49731;DHT22;35622;52.008;5.426;2023-11-19T10:22:23;15.90;98.90
49731;DHT22;35622;52.008;5.426;2023-11-19T10:24:49;16.60;98.60
49731;DHT22;35622;52.008;5.426;2023-11-19T10:27:15;17.10;96.60
49731;DHT22;35622;52.008;5.426;2023-11-19T10:29:43;17.20;95.30
49731;DHT22;35622;52.008;5.426;2023-11-19T10:32:09;16.70;94.80
49731;DHT22;35622;52.008;5.426;2023-11-19T10:34:35;16.40;96.30
49731;DHT22;35622;52.008;5.426;2023-11-19T10:37:03;16.50;96.20
49731;DHT22;35622;52.008;5.426;2023-11-19T10:40:04;16.40;96.80
49731;DHT22;35622;52.008;5.426;2023-11-19T10:42:31;16.70;96.20
49731;DHT22;35622;52.008;5.426;2023-11-19T10:44:56;16.50;95.80
49731;DHT22;35622;52.008;5.426;2023-11-19T10:47:23;16.40;96.80
49731;DHT22;35622;52.008;5.426;2023-11-19T10:49:49;16.40;96.70
49731;DHT22;35622;52.008;5.426;2023-11-19T10:52:18;16.50;96.30
49731;DHT22;35622;52.008;5.426;2023-11-19T10:54:50;16.60;96.20
49731;DHT22;35622;52.008;5.426;2023-11-19T10:57:20;17.00;95.60
49731;DHT22;35622;52.008;5.426;2023-11-19T10:59:47;17.30;96.10
49731;DHT22;35622;52.008;5.426;2023-11-19T11:02:17;17.40;94.20
49731;DHT22;35622;52.008;5.426;2023-11-19T11:04:45;17.40;94.30
49731;DHT22;35622;52.008;5.426;2023-11-19T11:07:14;17.20;95.10
49731;DHT22;35622;52.008;5.426;2023-11-19T11:09:41;17.00;95.30
49731;DHT22;35622;52.008;5.426;2023-11-19T11:12:08;17.10;95.70
49731;DHT22;35622;52.008;5.426;2023-11-19T11:14:37;17.00;95.10
49731;DHT22;35622;52.008;5.426;2023-11-19T11:17:06;17.10;96.00
49731;DHT22;35622;52.008;5.426;2023-11-19T11:19:34;17.20;94.90
49731;DHT22;35622;52.008;5.426;2023-11-19T11:22:00;17.10;95.80
49731;DHT22;35622;52.008;5.426;2023-11-19T11:33:35;16.70;96.10
49731;DHT22;35622;52.008;5.426;2023-11-19T11:36:19;16.90;95.80
49731;DHT22;35622;52.008;5.426;2023-11-19T11:38:48;17.00;95.80
49731;DHT22;35622;52.008;5.426;2023-11-19T11:41:22;17.00;96.70
49731;DHT22;35622;52.008;5.426;2023-11-19T11:49:09;16.50;96.00
49731;DHT22;35622;52.008;5.426;2023-11-19T11:57:03;16.50;95.80
49731;DHT22;35622;52.008;5.426;2023-11-19T12:02:03;15.90;96.20
49731;DHT22;35622;52.008;5.426;2023-11-19T12:04:28;15.80;96.70
49731;DHT22;35622;52.008;5.426;2023-11-19T12:09:29;16.10;97.20
49731;DHT22;35622;52.008;5.426;2023-11-19T12:19:59;16.20;97.40
49731;DHT22;35622;52.008;5.426;2023-11-19T12:22:25;16.40;98.00
49731;DHT22;35622;52.008;5.426;2023-11-19T12:24:53;16.50;96.40
49731;DHT22;35622;52.008;5.426;2023-11-19T12:27:19;16.50;96.90
49731;DHT22;35622;52.008;5.426;2023-11-19T12:29:47;16.50;97.20
49731;DHT22;35622;52.008;5.426;2023-11-19T12:32:13;16.60;97.10
49731;DHT22;35622;52.008;5.426;2023-11-19T12:34:38;16.90;96.40
49731;DHT22;35622;52.008;5.426;2023-11-19T12:37:05;16.80;95.50
49731;DHT22;35622;52.008;5.426;2023-11-19T12:39:31;17.00;95.60
49731;DHT22;35622;52.008;5.426;2023-11-19T12:41:57;17.10;95.20
49731;DHT22;35622;52.008;5.426;2023-11-19T12:44:25;17.20;94.90
49731;DHT22;35622;52.008;5.426;2023-11-19T12:47:08;17.20;94.90
49731;DHT22;35622;52.008;5.426;2023-11-19T12:49:36;17.40;94.80
49731;DHT22;35622;52.008;5.426;2023-11-19T12:52:10;17.00;94.50
49731;DHT22;35622;52.008;5.426;2023-11-19T12:54:36;16.90;95.30
49731;DHT22;35622;52.008;5.426;2023-11-19T12:57:03;16.60;95.70
49731;DHT22;35622;52.008;5.426;2023-11-19T12:59:30;16.70;96.00
49731;DHT22;35622;52.008;5.426;2023-11-19T13:01:59;16.80;96.00
49731;DHT22;35622;52.008;5.426;2023-11-19T13:04:29;16.60;96.20
49731;DHT22;35622;52.008;5.426;2023-11-19T13:07:02;16.60;95.70
49731;DHT22;35622;52.008;5.426;2023-11-19T13:09:29;16.60;95.90
49731;DHT22;35622;52.008;5.426;2023-11-19T13:11:55;16.30;95.30
49731;DHT22;35622;52.008;5.426;2023-11-19T13:14:22;16.30;95.90
49731;DHT22;35622;52.008;5.426;2023-11-19T13:16:48;16.10;96.20
49731;DHT22;35622;52.008;5.426;2023-11-19T13:19:15;16.00;96.80
49731;DHT22;35622;52.008;5.426;2023-11-19T13:21:41;16.00;97.40
49731;DHT22;35622;52.008;5.426;2023-11-19T13:24:08;16.20;96.90
49731;DHT22;35622;52.008;5.426;2023-11-19T13:26:34;16.30;96.80
49731;DHT22;35622;52.008;5.426;2023-11-19T13:29:00;16.10;97.60
49731;DHT22;35622;52.008;5.426;2023-11-19T13:31:26;15.90;98.70
49731;DHT22;35622;52.008;5.426;2023-11-19T13:33:51;16.20;98.30
49731;DHT22;35622;52.008;5.426;2023-11-19T13:36:17;16.20;98.60
49731;DHT22;35622;52.008;5.426;2023-11-19T13:38:43;16.20;98.40
49731;DHT22;35622;52.008;5.426;2023-11-19T13:41:10;16.00;98.90
49731;DHT22;35622;52.008;5.426;2023-11-19T13:43:36;15.90;98.80
49731;DHT22;35622;52.008;5.426;2023-11-19T13:46:02;15.80;99.70
49731;DHT22;35622;52.008;5.426;2023-11-19T13:48:28;15.60;99.90
49731;DHT22;35622;52.008;5.426;2023-11-19T13:50:55;15.90;99.90
49731;DHT22;35622;52.008;5.426;2023-11-19T13:53:21;15.90;99.30
49731;DHT22;35622;52.008;5.426;2023-11-19T13:55:46;15.70;99.80
49731;DHT22;35622;52.008;5.426;2023-11-19T13:58:13;15.70;99.90
49731;DHT22;35622;52.008;5.426;2023-11-19T14:00:38;15.70;99.90
49731;DHT22;35622;52.008;5.426;2023-11-19T14:03:04;15.80;99.90
49731;DHT22;35622;52.008;5.426;2023-11-19T14:05:30;15.90;99.90
49731;DHT22;35622;52.008;5.426;2023-11-19T14:07:55;15.70;99.90
49731;DHT22;35622;52.008;5.426;2023-11-19T14:10:22;15.60;99.90
49731;DHT22;35622;52.008;5.426;2023-11-19T14:12:48;15.90;99.90
49731;DHT22;35622;52.008;5.426;2023-11-19T14:15:15;16.00;99.90
49731;DHT22;35622;52.008;5.426;2023-11-19T14:17:42;16.20;99.90
49731;DHT22;35622;52.008;5.426;2023-11-19T14:20:09;16.00;99.90
49731;DHT22;35622;52.008;5.426;2023-11-19T14:22:45;16.00;99.90
49731;DHT22;35622;52.008;5.426;2023-11-19T14:25:13;15.80;99.90
49731;DHT22;35622;52.008;5.426;2023-11-19T14:27:43;16.00;99.90
49731;DHT22;35622;52.008;5.426;2023-11-19T14:30:10;16.20;99.90
49731;DHT22;35622;52.008;5.426;2023-11-19T14:32:40;16.30;99.00
49731;DHT22;35622;52.008;5.426;2023-11-19T14:35:08;16.40;99.20
49731;DHT22;35622;52.008;5.426;2023-11-19T14:37:34;16.40;99.10
49731;DHT22;35622;52.008;5.426;2023-11-19T14:40:00;16.40;98.30
49731;DHT22;35622;52.008;5.426;2023-11-19T14:42:26;16.10;98.40
49731;DHT22;35622;52.008;5.426;2023-11-19T14:44:52;15.90;98.60
49731;DHT22;35622;52.008;5.426;2023-11-19T14:47:21;16.00;98.80
49731;DHT22;35622;52.008;5.426;2023-11-19T14:49:47;16.00;98.60
49731;DHT22;35622;52.008;5.426;2023-11-19T14:52:13;16.00;98.70
49731;DHT22;35622;52.008;5.426;2023-11-19T14:54:38;16.00;98.30
49731;DHT22;35622;52.008;5.426;2023-11-19T14:57:07;15.80;98.20
49731;DHT22;35622;52.008;5.426;2023-11-19T14:59:37;15.70;98.90
49731;DHT22;35622;52.008;5.426;2023-11-19T15:02:03;15.50;98.50
49731;DHT22;35622;52.008;5.426;2023-11-19T15:04:29;15.30;99.00
49731;DHT22;35622;52.008;5.426;2023-11-19T15:06:57;15.40;99.40
49731;DHT22;35622;52.008;5.426;2023-11-19T15:09:22;15.50;99.10
49731;DHT22;35622;52.008;5.426;2023-11-19T15:11:48;15.60;99.00
49731;DHT22;35622;52.008;5.426;2023-11-19T15:14:14;15.70;98.70
49731;DHT22;35622;52.008;5.426;2023-11-19T15:16:42;15.60;98.50
49731;DHT22;35622;52.008;5.426;2023-11-19T15:19:08;15.50;98.90
49731;DHT22;35622;52.008;5.426;2023-11-19T15:21:34;15.80;98.30
49731;DHT22;35622;52.008;5.426;2023-11-19T15:24:00;15.60;98.50
49731;DHT22;35622;52.008;5.426;2023-11-19T15:26:25;15.10;99.00
49731;DHT22;35622;52.008;5.426;2023-11-19T15:28:51;15.20;99.50
49731;DHT22;35622;52.008;5.426;2023-11-19T15:31:22;15.20;99.50
49731;DHT22;35622;52.008;5.426;2023-11-19T15:33:47;15.10;99.50
49731;DHT22;35622;52.008;5.426;2023-11-19T15:36:13;15.20;99.60
49731;DHT22;35622;52.008;5.426;2023-11-19T15:38:39;15.40;99.00
49731;DHT22;35622;52.008;5.426;2023-11-19T15:41:05;15.50;98.20
49731;DHT22;35622;52.008;5.426;2023-11-19T15:43:32;15.60;98.50
49731;DHT22;35622;52.008;5.426;2023-11-19T15:45:58;15.50;98.50
49731;DHT22;35622;52.008;5.426;2023-11-19T15:48:24;15.60;98.20
49731;DHT22;35622;52.008;5.426;2023-11-19T15:50:51;15.20;99.10
49731;DHT22;35622;52.008;5.426;2023-11-19T15:53:17;15.20;99.10
49731;DHT22;35622;52.008;5.426;2023-11-19T15:55:44;15.30;98.50
49731;DHT22;35622;52.008;5.426;2023-11-19T15:58:10;15.50;98.70
49731;DHT22;35622;52.008;5.426;2023-11-19T16:00:35;15.30;97.90